createdAt,value
2022-12-25T00:04:56.069Z,17.60
2022-12-25T00:15:00.123Z,19.70
2022-12-25T00:25:04.535Z,17.10
2022-12-25T00:35:08.790Z,19.60
2022-12-25T00:45:13.149Z,21.00
2022-12-25T00:55:19.088Z,21.30
2022-12-25T01:05:22.853Z,17.40
2022-12-25T01:15:27.027Z,16.50
2022-12-25T01:25:30.904Z,18.30
2022-12-25T01:35:35.182Z,20.60
2022-12-25T01:45:44.826Z,19.30
2022-12-25T01:55:51.586Z,15.30
2022-12-25T02:05:55.969Z,16.20
2022-12-25T02:16:16.273Z,14.20
2022-12-25T02:26:57.780Z,17.30
2022-12-25T02:37:11.580Z,16.60
2022-12-25T02:47:35.537Z,15.20
2022-12-25T02:58:03.118Z,13.40
2022-12-25T03:08:12.719Z,13.10
2022-12-25T03:18:20.126Z,12.70
2022-12-25T03:39:25.626Z,27.10
2022-12-25T03:50:01.638Z,10.70
2022-12-25T04:00:24.895Z,14.10
2022-12-25T04:10:47.350Z,10.60
2022-12-25T04:21:10.031Z,15.90
2022-12-25T04:31:32.784Z,8.50
2022-12-25T04:41:36.831Z,8.70
2022-12-25T04:51:40.568Z,9.40
2022-12-25T05:01:44.662Z,8.40
2022-12-25T05:11:48.619Z,10.20
2022-12-25T05:21:52.393Z,9.70
2022-12-25T05:31:56.266Z,9.40
2022-12-25T05:42:00.127Z,8.80
2022-12-25T05:52:04.306Z,8.60
2022-12-25T06:02:08.280Z,9.50
2022-12-25T06:12:12.351Z,9.30
2022-12-25T06:22:16.115Z,11.70
2022-12-25T06:32:20.814Z,10.40
2022-12-25T06:42:24.525Z,11.60
2022-12-25T06:52:28.364Z,12.20
2022-12-25T07:02:34.408Z,9.50
2022-12-25T07:12:38.687Z,9.70
2022-12-25T07:22:42.628Z,10.60
2022-12-25T07:32:50.117Z,17.00
2022-12-25T07:42:54.551Z,12.60
2022-12-25T07:52:58.627Z,12.20
2022-12-25T08:03:03.063Z,15.10
2022-12-25T08:13:13.956Z,12.40
2022-12-25T08:23:18.543Z,25.90
2022-12-25T08:33:22.899Z,16.60
2022-12-25T08:43:26.884Z,23.00
2022-12-25T08:53:31.175Z,21.40
2022-12-25T09:03:36.283Z,22.00
2022-12-25T09:13:40.437Z,36.90
2022-12-25T09:23:44.812Z,32.00
2022-12-25T09:33:49.627Z,24.30
2022-12-25T09:44:11.706Z,29.30
2022-12-25T09:54:38.617Z,20.20
2022-12-25T10:05:09.067Z,26.60
2022-12-25T10:15:45.250Z,13.50
2022-12-25T10:25:52.235Z,13.00
2022-12-25T10:35:56.495Z,21.60
2022-12-25T10:46:00.913Z,28.30
2022-12-25T10:56:08.281Z,16.10
2022-12-25T11:06:29.919Z,11.00
2022-12-25T11:16:40.628Z,15.50
2022-12-25T11:26:53.469Z,20.00
2022-12-25T11:37:00.469Z,15.30
2022-12-25T11:47:14.155Z,23.50
2022-12-25T11:57:19.049Z,12.20
2022-12-25T12:07:30.586Z,27.00
2022-12-25T12:17:35.490Z,5.40
2022-12-25T12:27:41.515Z,10.30
2022-12-25T12:37:51.748Z,6.40
2022-12-25T12:47:56.397Z,5.70
2022-12-25T12:58:02.947Z,9.60
2022-12-25T13:08:39.736Z,3.90
2022-12-25T13:18:44.545Z,7.20
2022-12-25T13:28:48.946Z,9.10
2022-12-25T13:38:57.095Z,6.60
2022-12-25T13:49:02.431Z,5.00
2022-12-25T13:59:06.697Z,10.80
2022-12-25T14:09:13.102Z,13.20
2022-12-25T14:19:34.956Z,10.00
2022-12-25T14:29:47.578Z,7.00
2022-12-25T14:39:57.768Z,19.70
2022-12-25T14:50:02.242Z,9.60
2022-12-25T15:00:30.392Z,10.20
2022-12-25T15:21:00.589Z,14.30
2022-12-25T15:31:15.751Z,16.00
2022-12-25T15:42:20.902Z,20.90
2022-12-25T15:52:25.195Z,20.30
2022-12-25T16:02:29.251Z,26.90
2022-12-25T16:12:33.647Z,39.20
2022-12-25T16:22:40.378Z,36.00
2022-12-25T16:32:51.766Z,38.00
2022-12-25T16:42:58.478Z,39.40
2022-12-25T16:53:02.741Z,39.50
2022-12-25T17:03:07.148Z,33.00
2022-12-25T17:13:11.449Z,34.20
2022-12-25T17:23:16.047Z,33.60
2022-12-25T17:33:20.387Z,38.00
2022-12-25T17:43:24.774Z,42.60
2022-12-25T17:53:28.939Z,41.00
2022-12-25T18:03:33.302Z,37.50
2022-12-25T18:13:38.222Z,37.20
2022-12-25T18:23:42.992Z,44.20
2022-12-25T18:33:48.194Z,60.70
2022-12-25T18:43:55.586Z,47.00
2022-12-25T18:54:02.185Z,48.70
2022-12-25T19:04:06.760Z,43.80
2022-12-25T19:14:11.125Z,52.50
2022-12-25T19:24:16.236Z,49.30
2022-12-25T19:34:20.728Z,52.00
2022-12-25T19:44:26.522Z,46.90
2022-12-25T19:54:31.474Z,51.00
2022-12-25T20:04:36.260Z,79.10
2022-12-25T20:14:41.029Z,58.40
2022-12-25T20:24:48.163Z,58.00
2022-12-25T20:34:52.775Z,57.80
2022-12-25T20:44:57.321Z,81.50
2022-12-25T20:55:02.558Z,66.80
2022-12-25T21:05:11.969Z,66.00
2022-12-25T21:15:16.649Z,68.20
2022-12-25T21:25:20.585Z,67.90
2022-12-25T21:35:25.075Z,72.50
2022-12-25T21:45:30.547Z,88.00
2022-12-25T21:55:35.666Z,121.90
2022-12-25T22:05:58.466Z,84.00
2022-12-25T22:16:24.975Z,65.50
2022-12-25T22:26:28.958Z,67.70
2022-12-25T22:36:33.171Z,68.10
2022-12-25T22:46:37.525Z,65.80
2022-12-25T22:56:41.562Z,89.80
2022-12-25T23:06:46.901Z,138.30
2022-12-25T23:16:50.832Z,171.50
2022-12-25T23:26:55.948Z,97.60
2022-12-25T23:37:00.433Z,139.90
2022-12-25T23:47:05.788Z,76.90
2022-12-25T23:57:11.358Z,128.40
